Time;durP1;ratioP1;P1;durP2;ratioP2;P2;SDS_P1;SDS_P2;PMS_P1;PMS_P2;Temp;Humidity;BMP_temperature;BMP_pressure;BME280_temperature;BME280_humidity;BME280_pressure;Samples;Min_cycle;Max_cycle;Signal;HPM_P1;HPM_P2
2022/05/14 00:00:43;;;;;;;68.30;13.13;;;;;;;;;;5011723;28;20018;-43
2022/05/14 00:03:11;;;;;;;73.57;13.00;;;;;;;;;;5017507;28;20029;-48
2022/05/14 00:05:38;;;;;;;76.50;15.88;;;;;;;;;;5032806;28;20112;-47
2022/05/14 00:08:05;;;;;;;67.70;12.93;;;;;;;;;;5034094;28;20116;-49
2022/05/14 00:10:33;;;;;;;81.32;15.88;;;;;;;;;;5046810;28;20653;-47
2022/05/14 00:13:06;;;;;;;89.28;17.10;;;;;;;;;;5050747;28;20032;-46
2022/05/14 00:15:38;;;;;;;88.20;16.65;;;;;;;;;;5021014;28;20029;-45
2022/05/14 00:18:06;;;;;;;87.93;16.20;;;;;;;;;;5037738;28;20039;-49
2022/05/14 00:20:36;;;;;;;90.65;18.23;;;;;;;;;;5031296;28;20033;-48
2022/05/14 00:23:03;;;;;;;85.90;15.80;;;;;;;;;;5030984;28;20029;-46
2022/05/14 00:25:30;;;;;;;88.20;17.38;;;;;;;;;;5030930;28;20021;-49
2022/05/14 00:27:58;;;;;;;85.70;16.98;;;;;;;;;;5036656;28;20502;-46
2022/05/14 00:30:26;;;;;;;91.50;17.40;;;;;;;;;;5030625;28;20026;-45
2022/05/14 00:32:53;;;;;;;93.40;17.70;;;;;;;;;;5030716;28;20057;-43
2022/05/14 00:35:21;;;;;;;98.88;18.42;;;;;;;;;;5031052;28;20029;-43
2022/05/14 00:37:48;;;;;;;98.90;18.27;;;;;;;;;;5030483;28;20026;-47
2022/05/14 00:40:18;;;;;;;92.32;17.30;;;;;;;;;;5030146;28;20022;-44
2022/05/14 00:42:45;;;;;;;100.38;19.52;;;;;;;;;;5030320;28;20040;-46
2022/05/14 00:45:14;;;;;;;102.80;18.65;;;;;;;;;;5030573;28;20387;-49
2022/05/14 00:47:42;;;;;;;101.45;19.88;;;;;;;;;;5030437;28;20029;-48
2022/05/14 00:50:21;;;;;;;99.03;17.38;;;;;;;;;;5030376;28;20025;-44
2022/05/14 00:52:49;;;;;;;101.70;18.63;;;;;;;;;;5030668;28;20022;-48
2022/05/14 00:55:17;;;;;;;106.35;18.83;;;;;;;;;;5030588;28;20560;-44
2022/05/14 00:57:45;;;;;;;92.10;17.52;;;;;;;;;;5030312;28;20041;-47
2022/05/14 01:00:19;;;;;;;103.15;18.95;;;;;;;;;;5030384;28;20365;-47
2022/05/14 01:02:46;;;;;;;103.60;19.20;;;;;;;;;;5030561;28;20041;-45
2022/05/14 01:05:13;;;;;;;91.75;18.20;;;;;;;;;;5030290;28;20028;-44
2022/05/14 01:07:41;;;;;;;82.03;17.63;;;;;;;;;;5030543;28;20034;-46
2022/05/14 01:10:10;;;;;;;104.72;19.05;;;;;;;;;;5029746;28;20028;-52
2022/05/14 01:12:39;;;;;;;95.40;18.33;;;;;;;;;;5046616;28;20390;-46
2022/05/14 01:15:15;;;;;;;86.63;18.17;;;;;;;;;;5046898;28;20041;-43
2022/05/14 01:17:43;;;;;;;96.63;17.75;;;;;;;;;;5045813;28;20135;-49
2022/05/14 01:20:11;;;;;;;94.88;18.48;;;;;;;;;;5049192;28;20060;-47
2022/05/14 01:22:47;;;;;;;89.85;18.00;;;;;;;;;;5030286;28;20037;-50
2022/05/14 01:28:00;;;;;;;88.25;17.35;;;;;;;;;;5029489;28;20072;-50
2022/05/14 01:30:29;;;;;;;79.60;17.42;;;;;;;;;;5029504;28;20499;-46
2022/05/14 01:33:05;;;;;;;83.93;17.10;;;;;;;;;;5029748;28;20063;-45
2022/05/14 01:35:38;;;;;;;87.82;17.95;;;;;;;;;;5029143;28;20368;-49
2022/05/14 01:38:05;;;;;;;93.72;17.48;;;;;;;;;;5030263;28;20028;-50
2022/05/14 01:40:33;;;;;;;81.07;16.80;;;;;;;;;;5029824;28;20391;-47
2022/05/14 01:43:00;;;;;;;85.82;17.15;;;;;;;;;;5029136;28;20033;-49
2022/05/14 01:45:27;;;;;;;81.93;17.83;;;;;;;;;;5032686;28;20483;-47
2022/05/14 01:47:55;;;;;;;69.35;16.90;;;;;;;;;;5035230;28;20030;-49
2022/05/14 01:50:22;;;;;;;77.95;17.13;;;;;;;;;;5036339;28;20028;-52
2022/05/14 01:52:50;;;;;;;77.72;18.30;;;;;;;;;;5054612;28;20021;-46
2022/05/14 01:55:17;;;;;;;82.82;17.73;;;;;;;;;;5053768;28;20025;-52
2022/05/14 01:57:44;;;;;;;75.38;18.08;;;;;;;;;;5026499;28;20025;-47
2022/05/14 02:00:13;;;;;;;75.55;17.27;;;;;;;;;;5022045;28;20041;-51
2022/05/14 02:02:40;;;;;;;74.68;17.05;;;;;;;;;;5040483;28;20060;-45
2022/05/14 02:05:08;;;;;;;75.70;17.05;;;;;;;;;;5032643;28;20017;-48
2022/05/14 02:07:36;;;;;;;75.53;16.25;;;;;;;;;;5032839;28;20099;-51
2022/05/14 02:10:04;;;;;;;85.57;17.48;;;;;;;;;;5032697;28;20026;-49
2022/05/14 02:12:31;;;;;;;80.13;16.90;;;;;;;;;;5032881;28;20037;-48
2022/05/14 02:14:59;;;;;;;65.53;15.65;;;;;;;;;;5032918;28;20021;-47
2022/05/14 02:17:27;;;;;;;67.45;16.33;;;;;;;;;;5032928;28;20028;-43
2022/05/14 02:19:55;;;;;;;72.28;15.20;;;;;;;;;;5031988;28;20065;-47
2022/05/14 02:22:22;;;;;;;67.53;16.15;;;;;;;;;;5032884;28;20479;-50
2022/05/14 02:24:50;;;;;;;62.05;16.23;;;;;;;;;;5029583;28;20498;-45
2022/05/14 02:27:18;;;;;;;69.32;16.73;;;;;;;;;;5016155;28;20100;-51
2022/05/14 02:29:54;;;;;;;60.08;15.43;;;;;;;;;;5033686;28;20041;-45
2022/05/14 02:32:24;;;;;;;52.85;14.23;;;;;;;;;;5028596;28;20082;-45
2022/05/14 02:34:52;;;;;;;60.22;15.48;;;;;;;;;;5033960;28;20096;-45
2022/05/14 02:37:22;;;;;;;59.00;15.50;;;;;;;;;;5032369;28;20108;-46
2022/05/14 02:39:50;;;;;;;61.00;15.18;;;;;;;;;;5032964;28;20025;-48
2022/05/14 02:42:18;;;;;;;60.05;14.05;;;;;;;;;;5032073;28;20037;-49
2022/05/14 02:44:46;;;;;;;56.38;15.48;;;;;;;;;;5033128;28;20029;-47
2022/05/14 02:47:13;;;;;;;63.60;15.20;;;;;;;;;;5032797;28;20120;-47
2022/05/14 02:49:41;;;;;;;66.72;15.60;;;;;;;;;;5033214;28;20032;-42
2022/05/14 02:52:08;;;;;;;64.35;14.68;;;;;;;;;;5032998;28;20033;-47
2022/05/14 02:54:35;;;;;;;54.45;14.15;;;;;;;;;;5033192;28;20037;-48
2022/05/14 02:57:02;;;;;;;59.33;15.00;;;;;;;;;;5030413;28;20850;-46
2022/05/14 02:59:29;;;;;;;63.03;15.30;;;;;;;;;;5029164;28;20026;-43
2022/05/14 03:01:57;;;;;;;60.03;14.40;;;;;;;;;;5030571;28;20476;-44
2022/05/14 03:04:28;;;;;;;63.53;14.90;;;;;;;;;;5031967;28;20053;-47
2022/05/14 03:06:56;;;;;;;62.25;15.38;;;;;;;;;;5030013;28;20030;-48
2022/05/14 03:09:23;;;;;;;59.90;13.70;;;;;;;;;;4990113;28;20030;-46
2022/05/14 03:11:50;;;;;;;55.10;13.93;;;;;;;;;;5029564;28;20486;-44
2022/05/14 03:14:18;;;;;;;53.90;13.45;;;;;;;;;;5032145;28;20030;-46
2022/05/14 03:16:45;;;;;;;50.45;13.35;;;;;;;;;;5013909;28;20104;-44
2022/05/14 03:19:13;;;;;;;54.75;13.60;;;;;;;;;;5032276;28;20096;-46
2022/05/14 03:21:41;;;;;;;45.05;12.75;;;;;;;;;;5033079;28;20028;-47
2022/05/14 03:24:10;;;;;;;46.85;13.70;;;;;;;;;;5033747;28;20018;-45
2022/05/14 03:26:37;;;;;;;52.70;12.65;;;;;;;;;;5032576;28;20475;-46
2022/05/14 03:29:04;;;;;;;47.13;13.15;;;;;;;;;;5032993;28;20028;-46
2022/05/14 03:31:34;;;;;;;49.70;13.32;;;;;;;;;;5033220;28;20448;-46
2022/05/14 03:34:01;;;;;;;48.30;12.95;;;;;;;;;;5032699;28;20018;-45
2022/05/14 03:36:28;;;;;;;46.22;12.50;;;;;;;;;;5033233;28;20026;-47
2022/05/14 03:38:55;;;;;;;42.90;12.93;;;;;;;;;;5033081;28;20079;-44
2022/05/14 03:41:23;;;;;;;42.55;13.00;;;;;;;;;;5033137;28;20022;-46
2022/05/14 03:43:52;;;;;;;49.53;12.05;;;;;;;;;;5033183;28;20057;-44
2022/05/14 03:46:19;;;;;;;41.08;11.85;;;;;;;;;;5032733;28;20029;-45
2022/05/14 03:48:46;;;;;;;42.38;13.52;;;;;;;;;;5033030;28;20025;-45
2022/05/14 03:51:13;;;;;;;48.10;12.13;;;;;;;;;;5032814;28;20033;-46
2022/05/14 03:53:40;;;;;;;37.83;11.60;;;;;;;;;;5032901;28;20021;-44
2022/05/14 03:56:07;;;;;;;48.58;12.20;;;;;;;;;;5033227;28;20087;-44
2022/05/14 03:58:34;;;;;;;43.25;12.57;;;;;;;;;;5032195;28;20045;-51
2022/05/14 04:01:02;;;;;;;40.67;11.55;;;;;;;;;;5032831;28;20092;-45
2022/05/14 04:03:30;;;;;;;29.88;11.45;;;;;;;;;;5032653;28;20110;-47
2022/05/14 04:05:57;;;;;;;39.38;11.38;;;;;;;;;;5032712;28;20422;-46
2022/05/14 04:08:24;;;;;;;34.22;11.25;;;;;;;;;;5032342;28;20033;-44
2022/05/14 04:10:51;;;;;;;35.53;11.70;;;;;;;;;;5032586;28;20025;-44
2022/05/14 04:13:18;;;;;;;38.75;11.32;;;;;;;;;;5031569;28;20101;-44
2022/05/14 04:15:44;;;;;;;35.50;10.93;;;;;;;;;;5032280;28;20498;-45
2022/05/14 04:18:11;;;;;;;35.50;11.27;;;;;;;;;;5031633;28;20021;-45
2022/05/14 04:20:38;;;;;;;36.35;10.98;;;;;;;;;;5032493;28;20048;-45
2022/05/14 04:23:07;;;;;;;39.83;11.32;;;;;;;;;;5032484;28;20365;-44
2022/05/14 04:25:34;;;;;;;36.92;10.82;;;;;;;;;;5031722;28;20060;-44
2022/05/14 04:28:01;;;;;;;40.03;10.93;;;;;;;;;;5031722;28;20026;-45
2022/05/14 04:30:28;;;;;;;36.28;9.90;;;;;;;;;;5032273;28;20026;-44
2022/05/14 04:32:55;;;;;;;29.90;9.95;;;;;;;;;;5032568;28;20545;-45
2022/05/14 04:35:22;;;;;;;34.47;10.30;;;;;;;;;;5031439;28;20052;-44
2022/05/14 04:37:49;;;;;;;32.65;10.38;;;;;;;;;;5032398;28;20034;-45
2022/05/14 04:40:16;;;;;;;27.25;8.98;;;;;;;;;;5032184;28;20112;-45
2022/05/14 04:42:43;;;;;;;34.63;9.68;;;;;;;;;;5031920;28;20040;-44
2022/05/14 04:45:10;;;;;;;32.70;10.35;;;;;;;;;;5031689;28;20025;-45
2022/05/14 04:47:37;;;;;;;27.63;9.77;;;;;;;;;;5031388;28;20125;-44
2022/05/14 04:50:05;;;;;;;30.48;9.98;;;;;;;;;;5031763;28;20041;-44
2022/05/14 04:52:32;;;;;;;34.20;10.10;;;;;;;;;;5032090;28;20032;-44
2022/05/14 04:54:59;;;;;;;30.77;9.30;;;;;;;;;;5031281;28;20026;-44
2022/05/14 04:57:26;;;;;;;32.03;8.90;;;;;;;;;;5032046;28;20041;-46
2022/05/14 04:59:53;;;;;;;28.30;9.30;;;;;;;;;;5031499;28;20021;-45
2022/05/14 05:05:05;;;;;;;29.75;9.63;;;;;;;;;;5031697;28;20049;-48
2022/05/14 05:07:32;;;;;;;30.90;9.23;;;;;;;;;;5031586;28;20026;-45
2022/05/14 05:09:59;;;;;;;32.75;9.48;;;;;;;;;;5031973;28;20033;-46
2022/05/14 05:12:26;;;;;;;35.45;9.73;;;;;;;;;;5031211;28;20556;-44
2022/05/14 05:14:53;;;;;;;30.35;9.80;;;;;;;;;;5031466;28;20033;-46
2022/05/14 05:17:20;;;;;;;23.10;7.78;;;;;;;;;;5031442;28;20037;-44
2022/05/14 05:19:47;;;;;;;28.80;8.90;;;;;;;;;;5031705;28;20053;-46
2022/05/14 05:22:14;;;;;;;25.50;8.07;;;;;;;;;;5031097;28;20032;-44
2022/05/14 05:24:41;;;;;;;27.45;9.07;;;;;;;;;;5031273;28;20023;-45
2022/05/14 05:27:08;;;;;;;32.60;9.13;;;;;;;;;;5031535;28;20041;-46
2022/05/14 05:29:35;;;;;;;32.97;8.82;;;;;;;;;;5031331;28;20033;-49
2022/05/14 05:32:02;;;;;;;24.33;8.35;;;;;;;;;;5031505;28;20035;-46
2022/05/14 05:34:29;;;;;;;22.63;7.22;;;;;;;;;;5031156;28;20053;-45
2022/05/14 05:36:56;;;;;;;24.85;8.57;;;;;;;;;;5031020;28;20036;-45
2022/05/14 05:39:23;;;;;;;29.42;9.43;;;;;;;;;;5030967;28;20495;-45
2022/05/14 05:41:50;;;;;;;23.15;8.70;;;;;;;;;;5031474;28;20105;-46
2022/05/14 05:44:17;;;;;;;27.23;7.82;;;;;;;;;;5031747;28;20514;-44
2022/05/14 05:46:44;;;;;;;26.35;7.95;;;;;;;;;;5030614;28;20048;-45
2022/05/14 05:49:11;;;;;;;22.90;7.70;;;;;;;;;;5031570;28;20029;-44
2022/05/14 05:51:38;;;;;;;25.52;7.85;;;;;;;;;;5031053;28;20079;-49
2022/05/14 05:56:57;;;;;;;24.92;7.63;;;;;;;;;;5032922;28;20048;-44
2022/05/14 05:59:26;;;;;;;23.38;7.70;;;;;;;;;;5032510;28;20375;-46
2022/05/14 06:01:52;;;;;;;21.25;7.03;;;;;;;;;;5030766;28;20570;-45
2022/05/14 06:04:20;;;;;;;22.77;7.82;;;;;;;;;;5031441;28;20036;-44
2022/05/14 06:06:47;;;;;;;25.83;9.10;;;;;;;;;;5031012;28;20547;-44
2022/05/14 06:09:16;;;;;;;22.88;7.82;;;;;;;;;;5029429;28;20057;-45
2022/05/14 06:11:44;;;;;;;18.80;6.80;;;;;;;;;;5030873;28;20041;-45
2022/05/14 06:14:12;;;;;;;23.00;7.53;;;;;;;;;;5031550;28;20038;-44
2022/05/14 06:16:39;;;;;;;16.20;6.35;;;;;;;;;;5030746;28;20491;-46
2022/05/14 06:19:07;;;;;;;20.95;7.20;;;;;;;;;;5030962;28;20049;-47
2022/05/14 06:21:34;;;;;;;23.10;6.85;;;;;;;;;;5031693;28;20033;-45
2022/05/14 06:24:01;;;;;;;22.98;6.97;;;;;;;;;;5031511;28;20483;-44
2022/05/14 06:26:28;;;;;;;20.10;7.10;;;;;;;;;;5030833;28;20042;-47
2022/05/14 06:28:55;;;;;;;20.77;7.57;;;;;;;;;;5031361;28;20386;-44
2022/05/14 06:31:22;;;;;;;21.10;7.43;;;;;;;;;;5030888;28;20109;-47
2022/05/14 06:33:50;;;;;;;17.27;6.90;;;;;;;;;;5031611;28;20030;-46
2022/05/14 06:36:17;;;;;;;20.60;6.47;;;;;;;;;;5031591;28;20442;-46
2022/05/14 06:38:44;;;;;;;22.13;6.70;;;;;;;;;;5034778;28;20379;-44
2022/05/14 06:41:12;;;;;;;16.77;6.28;;;;;;;;;;5034634;28;20056;-45
2022/05/14 06:43:39;;;;;;;22.95;6.72;;;;;;;;;;5034561;28;20021;-45
2022/05/14 06:46:07;;;;;;;15.90;6.93;;;;;;;;;;5034870;28;20026;-45
2022/05/14 06:48:34;;;;;;;17.42;6.47;;;;;;;;;;5034651;28;20036;-46
2022/05/14 06:51:02;;;;;;;19.25;6.43;;;;;;;;;;5034021;28;20132;-44
2022/05/14 06:53:29;;;;;;;18.05;6.22;;;;;;;;;;5034944;28;20028;-46
2022/05/14 06:55:57;;;;;;;15.75;6.30;;;;;;;;;;5033708;28;20507;-44
2022/05/14 06:58:26;;;;;;;18.10;5.93;;;;;;;;;;5034656;28;20025;-44
2022/05/14 07:00:53;;;;;;;20.90;6.78;;;;;;;;;;5034835;28;20060;-45
2022/05/14 07:08:51;;;;;;;17.70;6.05;;;;;;;;;;5033500;28;20056;-44
2022/05/14 07:11:18;;;;;;;17.95;6.60;;;;;;;;;;5033643;28;20398;-45
2022/05/14 07:13:45;;;;;;;12.50;4.82;;;;;;;;;;5032717;28;20029;-47
2022/05/14 07:16:12;;;;;;;15.68;6.15;;;;;;;;;;5033232;28;20057;-45
2022/05/14 07:18:39;;;;;;;16.38;5.28;;;;;;;;;;5032595;28;20111;-44
2022/05/14 07:21:06;;;;;;;15.15;6.00;;;;;;;;;;5034367;28;20071;-44
2022/05/14 07:23:32;;;;;;;14.50;5.50;;;;;;;;;;5033757;28;20430;-48
2022/05/14 07:26:06;;;;;;;14.07;5.35;;;;;;;;;;5033446;28;20475;-44
2022/05/14 07:28:34;;;;;;;18.30;5.80;;;;;;;;;;5015644;28;20040;-47
2022/05/14 07:31:02;;;;;;;12.65;5.88;;;;;;;;;;5034106;28;20029;-46
2022/05/14 07:33:29;;;;;;;11.18;5.85;;;;;;;;;;5033106;28;20100;-46
2022/05/14 07:35:57;;;;;;;14.70;5.97;;;;;;;;;;5033347;28;20415;-44
2022/05/14 07:38:24;;;;;;;14.23;5.43;;;;;;;;;;5033470;28;20487;-45
2022/05/14 07:40:51;;;;;;;13.48;6.22;;;;;;;;;;5033609;28;20052;-45
2022/05/14 07:43:20;;;;;;;11.25;5.07;;;;;;;;;;5033843;28;20021;-46
2022/05/14 07:45:50;;;;;;;12.77;5.32;;;;;;;;;;5032848;28;20594;-44
2022/05/14 07:48:20;;;;;;;12.50;4.60;;;;;;;;;;5032377;28;20025;-49
2022/05/14 07:50:48;;;;;;;10.63;4.38;;;;;;;;;;5033221;28;20037;-45
2022/05/14 07:53:18;;;;;;;10.75;4.70;;;;;;;;;;5033754;28;20495;-45
2022/05/14 07:55:45;;;;;;;11.40;4.85;;;;;;;;;;5033540;28;20030;-50
2022/05/14 08:01:28;;;;;;;12.18;4.57;;;;;;;;;;5034748;28;20029;-47
2022/05/14 08:07:11;;;;;;;10.23;4.95;;;;;;;;;;5024152;28;20518;-45
2022/05/14 08:09:38;;;;;;;9.65;4.90;;;;;;;;;;5026157;28;20549;-44
2022/05/14 08:12:06;;;;;;;10.95;4.20;;;;;;;;;;5023021;28;20463;-47
2022/05/14 08:14:33;;;;;;;12.15;4.82;;;;;;;;;;5023266;28;20060;-44
2022/05/14 08:17:00;;;;;;;8.77;4.50;;;;;;;;;;5011579;28;20125;-46
2022/05/14 08:19:27;;;;;;;8.90;3.90;;;;;;;;;;5012238;28;20500;-46
2022/05/14 08:24:40;;;;;;;9.20;4.10;;;;;;;;;;5011532;28;20121;-47
2022/05/14 08:27:09;;;;;;;14.20;4.30;;;;;;;;;;5012245;28;20034;-45
2022/05/14 08:29:36;;;;;;;7.70;4.07;;;;;;;;;;5012440;28;20045;-44
2022/05/14 08:32:04;;;;;;;10.93;4.43;;;;;;;;;;5012079;28;20029;-45
2022/05/14 08:34:32;;;;;;;9.52;3.72;;;;;;;;;;5032514;28;20035;-43
2022/05/14 08:36:59;;;;;;;9.27;4.13;;;;;;;;;;5031999;28;20037;-43
2022/05/14 08:39:28;;;;;;;11.32;4.45;;;;;;;;;;5031908;28;20025;-43
2022/05/14 08:41:57;;;;;;;8.55;3.92;;;;;;;;;;5031455;28;20510;-44
2022/05/14 08:44:37;;;;;;;9.88;3.72;;;;;;;;;;5032437;28;20485;-45
2022/05/14 08:47:09;;;;;;;9.45;4.00;;;;;;;;;;5031919;28;20441;-46
2022/05/14 08:49:51;;;;;;;7.30;3.55;;;;;;;;;;5032144;28;20104;-43
2022/05/14 08:52:21;;;;;;;8.27;3.80;;;;;;;;;;5013357;28;20036;-43
2022/05/14 08:54:48;;;;;;;7.13;3.53;;;;;;;;;;5032273;28;20295;-47
2022/05/14 08:57:33;;;;;;;11.25;3.13;;;;;;;;;;5031271;28;20096;-45
2022/05/14 09:00:00;;;;;;;9.85;3.55;;;;;;;;;;5031489;28;20030;-46
2022/05/14 09:02:30;;;;;;;10.35;3.78;;;;;;;;;;5032065;28;20048;-46
2022/05/14 09:05:06;;;;;;;8.30;3.53;;;;;;;;;;5031535;28;20053;-45
2022/05/14 09:07:33;;;;;;;10.75;3.55;;;;;;;;;;5031116;28;20039;-42
2022/05/14 09:10:00;;;;;;;6.63;3.13;;;;;;;;;;5031820;28;20037;-45
2022/05/14 09:12:31;;;;;;;8.00;2.95;;;;;;;;;;5031197;28;20022;-47
2022/05/14 09:14:59;;;;;;;5.55;3.00;;;;;;;;;;5031373;28;20029;-44
2022/05/14 09:17:29;;;;;;;8.68;3.03;;;;;;;;;;5030998;28;20076;-49
2022/05/14 09:19:56;;;;;;;8.00;3.55;;;;;;;;;;5031698;28;20504;-44
2022/05/14 09:22:23;;;;;;;6.10;3.35;;;;;;;;;;5031096;28;20059;-45
2022/05/14 09:25:00;;;;;;;8.23;3.17;;;;;;;;;;5031533;28;20025;-44
2022/05/14 09:27:42;;;;;;;6.07;3.10;;;;;;;;;;5031497;28;20037;-46
2022/05/14 09:30:12;;;;;;;9.38;3.45;;;;;;;;;;5031554;28;20411;-47
2022/05/14 09:32:44;;;;;;;8.25;3.65;;;;;;;;;;5031146;28;20026;-45
2022/05/14 09:35:19;;;;;;;7.35;3.58;;;;;;;;;;5030871;28;20041;-47
2022/05/14 09:37:46;;;;;;;6.72;2.58;;;;;;;;;;5031699;28;20030;-47
2022/05/14 09:40:19;;;;;;;5.45;3.03;;;;;;;;;;5031259;28;20053;-49
2022/05/14 09:42:49;;;;;;;7.57;2.80;;;;;;;;;;5031616;28;20120;-44
2022/05/14 09:45:29;;;;;;;6.70;3.13;;;;;;;;;;5031266;28;20053;-46
2022/05/14 09:47:56;;;;;;;5.00;2.92;;;;;;;;;;5031591;28;20040;-47
2022/05/14 09:50:25;;;;;;;8.00;3.00;;;;;;;;;;5031232;28;20025;-45
2022/05/14 09:53:00;;;;;;;4.93;2.65;;;;;;;;;;5031367;28;20104;-43
2022/05/14 09:55:34;;;;;;;6.50;2.75;;;;;;;;;;5030860;28;20537;-46
2022/05/14 09:58:04;;;;;;;5.75;2.40;;;;;;;;;;5031102;28;20095;-48
2022/05/14 10:00:51;;;;;;;6.63;3.03;;;;;;;;;;5030915;28;20377;-44
2022/05/14 10:03:24;;;;;;;6.10;2.83;;;;;;;;;;5031494;28;20391;-45
2022/05/14 10:05:54;;;;;;;10.05;3.45;;;;;;;;;;5031360;28;20037;-45
2022/05/14 10:08:33;;;;;;;8.98;2.70;;;;;;;;;;5030410;28;20100;-43
2022/05/14 10:11:07;;;;;;;4.80;2.47;;;;;;;;;;5031093;28;20468;-43
2022/05/14 10:13:52;;;;;;;5.95;2.58;;;;;;;;;;5035213;28;20071;-43
2022/05/14 10:16:40;;;;;;;7.13;2.95;;;;;;;;;;5035102;28;20037;-43
2022/05/14 10:19:18;;;;;;;5.93;2.60;;;;;;;;;;5034317;28;20045;-46
2022/05/14 10:21:45;;;;;;;9.07;2.85;;;;;;;;;;5034549;28;20030;-43
2022/05/14 10:27:13;;;;;;;7.97;2.72;;;;;;;;;;5035068;28;20088;-43
2022/05/14 10:29:58;;;;;;;7.13;2.47;;;;;;;;;;5034500;28;20033;-43
2022/05/14 10:32:26;;;;;;;7.32;2.72;;;;;;;;;;5034547;28;20018;-43
2022/05/14 10:34:53;;;;;;;4.90;2.92;;;;;;;;;;5034698;28;20605;-43
2022/05/14 10:37:32;;;;;;;6.00;2.20;;;;;;;;;;5034741;28;20063;-43
2022/05/14 10:40:10;;;;;;;5.68;2.40;;;;;;;;;;5033738;28;20029;-44
2022/05/14 10:42:36;;;;;;;5.05;2.03;;;;;;;;;;5034742;28;20120;-43
2022/05/14 10:45:09;;;;;;;5.97;2.50;;;;;;;;;;5034312;28;20138;-50
2022/05/14 10:47:35;;;;;;;;;;;;;;;;;;5034429;28;20028;-43
2022/05/14 10:50:08;;;;;;;4.72;2.22;;;;;;;;;;5034689;28;20389;-42
2022/05/14 10:52:39;;;;;;;4.22;2.20;;;;;;;;;;5033728;28;20045;-43
2022/05/14 10:55:26;;;;;;;6.43;2.88;;;;;;;;;;5034482;28;20026;-43
2022/05/14 10:57:58;;;;;;;5.43;2.53;;;;;;;;;;5033818;28;20612;-43
2022/05/14 11:00:31;;;;;;;4.88;2.10;;;;;;;;;;5034123;28;20026;-43
2022/05/14 11:02:58;;;;;;;4.32;1.83;;;;;;;;;;5034447;28;20458;-44
2022/05/14 11:05:49;;;;;;;4.50;2.70;;;;;;;;;;5033272;28;20040;-43
2022/05/14 11:08:27;;;;;;;4.78;2.10;;;;;;;;;;5034428;28;20124;-42
2022/05/14 11:11:03;;;;;;;6.72;2.40;;;;;;;;;;5033327;28;20022;-43
2022/05/14 11:13:30;;;;;;;4.15;2.22;;;;;;;;;;5017350;28;20121;-44
2022/05/14 11:16:03;;;;;;;5.32;2.58;;;;;;;;;;5013979;28;20018;-47
2022/05/14 11:18:29;;;;;;;;;;;;;;;;;;5013423;28;20056;-44
2022/05/14 11:21:03;;;;;;;4.93;2.25;;;;;;;;;;5028118;28;19916;-45
2022/05/14 11:23:30;;;;;;;5.82;2.55;;;;;;;;;;5032848;28;20044;-45
2022/05/14 11:26:05;;;;;;;6.88;2.38;;;;;;;;;;5033106;28;20017;-45
2022/05/14 11:28:32;;;;;;;9.73;3.33;;;;;;;;;;5028444;28;20135;-45
2022/05/14 11:31:17;;;;;;;7.53;2.50;;;;;;;;;;5023951;28;20030;-44
2022/05/14 11:33:44;;;;;;;8.10;2.67;;;;;;;;;;5022857;28;20503;-44
2022/05/14 11:36:11;;;;;;;10.25;2.75;;;;;;;;;;5021460;28;20033;-47
2022/05/14 11:38:43;;;;;;;7.03;2.60;;;;;;;;;;5024839;28;20026;-44
2022/05/14 11:41:11;;;;;;;7.78;2.65;;;;;;;;;;5028999;28;20422;-47
2022/05/14 11:43:46;;;;;;;9.52;2.72;;;;;;;;;;5031812;28;20033;-46
2022/05/14 11:46:31;;;;;;;7.65;2.47;;;;;;;;;;5027365;28;20545;-48
2022/05/14 11:49:03;;;;;;;9.68;2.38;;;;;;;;;;5032556;28;20025;-46
2022/05/14 11:51:30;;;;;;;;;;;;;;;;;;5033986;28;20112;-48
2022/05/14 11:54:09;;;;;;;7.15;2.70;;;;;;;;;;5033407;28;20379;-45
2022/05/14 11:56:45;;;;;;;8.15;2.75;;;;;;;;;;5032636;28;20026;-47
2022/05/14 11:59:18;;;;;;;11.60;3.30;;;;;;;;;;5033112;28;20117;-45
2022/05/14 12:01:46;;;;;;;8.82;2.97;;;;;;;;;;5032448;28;20038;-43
2022/05/14 12:04:16;;;;;;;6.40;2.78;;;;;;;;;;5033222;28;20104;-44
2022/05/14 12:06:54;;;;;;;11.57;3.05;;;;;;;;;;5032848;28;20033;-46
2022/05/14 12:09:43;;;;;;;9.70;2.58;;;;;;;;;;5032679;28;20029;-43
2022/05/14 12:12:10;;;;;;;7.55;3.10;;;;;;;;;;5033040;28;20030;-43
2022/05/14 12:14:38;;;;;;;11.30;2.97;;;;;;;;;;5032185;28;20104;-46
2022/05/14 12:17:06;;;;;;;15.70;3.45;;;;;;;;;;5032591;28;20033;-43
2022/05/14 12:19:36;;;;;;;10.13;3.30;;;;;;;;;;5031802;28;20047;-47
2022/05/14 12:22:05;;;;;;;15.77;3.03;;;;;;;;;;5032854;28;20037;-45
2022/05/14 12:24:34;;;;;;;12.93;3.45;;;;;;;;;;5031973;28;20018;-47
2022/05/14 12:27:01;;;;;;;10.73;3.28;;;;;;;;;;5036058;28;20014;-44
2022/05/14 12:29:30;;;;;;;10.23;3.15;;;;;;;;;;5038370;28;20391;-46
2022/05/14 12:34:45;;;;;;;17.75;3.40;;;;;;;;;;5036133;28;20095;-48
2022/05/14 12:37:21;;;;;;;14.68;3.47;;;;;;;;;;5032134;28;20032;-44
2022/05/14 12:39:49;;;;;;;11.77;3.08;;;;;;;;;;5032465;28;20029;-48
2022/05/14 12:42:21;;;;;;;14.85;3.47;;;;;;;;;;5031563;28;20025;-44
2022/05/14 12:44:51;;;;;;;12.75;3.50;;;;;;;;;;5032491;28;20044;-43
2022/05/14 12:47:25;;;;;;;13.18;3.20;;;;;;;;;;5031760;28;20071;-44
2022/05/14 12:49:53;;;;;;;14.85;3.38;;;;;;;;;;5032116;28;20112;-46
2022/05/14 12:52:21;;;;;;;13.55;4.05;;;;;;;;;;5039224;28;20526;-44
2022/05/14 12:54:52;;;;;;;19.35;3.50;;;;;;;;;;5051599;28;20493;-47
2022/05/14 12:57:21;;;;;;;12.45;3.33;;;;;;;;;;5037227;28;20135;-46
2022/05/14 12:59:48;;;;;;;11.80;3.20;;;;;;;;;;5041022;28;20478;-47
2022/05/14 13:02:24;;;;;;;9.75;3.50;;;;;;;;;;5041913;28;20155;-43
2022/05/14 13:05:06;;;;;;;13.52;3.13;;;;;;;;;;5040198;28;20025;-48
2022/05/14 13:07:34;;;;;;;10.07;3.08;;;;;;;;;;5040799;28;20025;-45
2022/05/14 13:10:02;;;;;;;12.55;2.88;;;;;;;;;;5038005;28;20108;-47
2022/05/14 13:12:30;;;;;;;11.25;3.35;;;;;;;;;;5040664;28;20028;-50
2022/05/14 13:14:58;;;;;;;11.15;2.90;;;;;;;;;;5041816;28;20041;-46
2022/05/14 13:17:38;;;;;;;11.55;3.00;;;;;;;;;;5040078;28;20088;-44
2022/05/14 13:20:16;;;;;;;11.35;2.97;;;;;;;;;;5038048;28;20064;-43
2022/05/14 13:22:44;;;;;;;9.13;2.70;;;;;;;;;;5037686;28;20021;-44
2022/05/14 13:25:29;;;;;;;13.50;3.35;;;;;;;;;;5040397;28;20037;-43
2022/05/14 13:27:56;;;;;;;10.68;2.88;;;;;;;;;;5041074;28;20033;-46
2022/05/14 13:30:33;;;;;;;13.48;2.88;;;;;;;;;;5022313;28;20025;-44
2022/05/14 13:33:10;;;;;;;7.13;2.53;;;;;;;;;;5036953;28;20513;-43
2022/05/14 13:38:43;;;;;;;12.52;2.85;;;;;;;;;;5034118;28;20076;-46
2022/05/14 13:41:19;;;;;;;11.50;2.80;;;;;;;;;;5039690;28;20026;-46
2022/05/14 13:43:49;;;;;;;11.23;2.42;;;;;;;;;;5038934;28;20491;-50
2022/05/14 13:46:21;;;;;;;8.50;2.75;;;;;;;;;;5041762;28;20041;-45
2022/05/14 13:48:49;;;;;;;8.98;2.35;;;;;;;;;;5027733;28;20479;-45
2022/05/14 13:51:19;;;;;;;10.80;2.45;;;;;;;;;;5042965;28;20061;-49
2022/05/14 13:53:47;;;;;;;10.32;2.80;;;;;;;;;;5035941;28;20103;-48
2022/05/14 13:56:18;;;;;;;11.40;2.97;;;;;;;;;;5035695;28;20475;-48
2022/05/14 13:58:58;;;;;;;11.20;2.40;;;;;;;;;;5035943;28;20099;-47
2022/05/14 14:01:45;;;;;;;11.82;2.50;;;;;;;;;;5036259;28;20037;-44
2022/05/14 14:04:21;;;;;;;8.27;2.53;;;;;;;;;;5023048;28;20037;-47
2022/05/14 14:06:51;;;;;;;9.13;2.78;;;;;;;;;;5038639;28;20029;-47
2022/05/14 14:09:18;;;;;;;5.13;2.58;;;;;;;;;;5045704;28;20071;-44
2022/05/14 14:11:45;;;;;;;11.27;2.60;;;;;;;;;;5043270;28;20064;-46
2022/05/14 14:14:16;;;;;;;9.32;2.25;;;;;;;;;;5039747;28;20033;-44
2022/05/14 14:16:44;;;;;;;6.65;2.20;;;;;;;;;;5034872;28;20049;-50
2022/05/14 14:19:11;;;;;;;16.58;2.85;;;;;;;;;;5037736;28;20049;-46
2022/05/14 14:21:38;;;;;;;6.75;2.35;;;;;;;;;;5043570;28;20029;-47
2022/05/14 14:24:07;;;;;;;6.88;2.00;;;;;;;;;;5039211;28;20057;-47
2022/05/14 14:26:34;;;;;;;9.07;2.80;;;;;;;;;;5051960;28;20573;-46
2022/05/14 14:29:01;;;;;;;11.45;2.30;;;;;;;;;;5054780;28;20024;-44
2022/05/14 14:31:28;;;;;;;10.68;2.83;;;;;;;;;;5054109;28;20025;-45
2022/05/14 14:33:55;;;;;;;6.45;2.22;;;;;;;;;;5036797;28;20037;-46
2022/05/14 14:36:24;;;;;;;8.77;2.70;;;;;;;;;;5053999;28;20441;-45
2022/05/14 14:38:51;;;;;;;8.98;2.20;;;;;;;;;;5054041;28;20037;-44
2022/05/14 14:41:18;;;;;;;7.63;2.22;;;;;;;;;;5054119;28;20071;-49
2022/05/14 14:43:45;;;;;;;7.55;1.67;;;;;;;;;;5054174;28;20032;-52
2022/05/14 14:46:12;;;;;;;9.77;2.20;;;;;;;;;;5053867;28;20022;-50
2022/05/14 14:48:40;;;;;;;10.95;2.15;;;;;;;;;;5054017;28;20025;-47
2022/05/14 14:51:10;;;;;;;11.95;1.98;;;;;;;;;;5054345;28;20021;-49
2022/05/14 14:53:37;;;;;;;9.73;2.03;;;;;;;;;;5051402;28;20063;-47
2022/05/14 14:56:05;;;;;;;9.27;1.77;;;;;;;;;;5053925;28;20095;-45
2022/05/14 14:58:32;;;;;;;21.27;2.45;;;;;;;;;;5053424;28;20104;-47
2022/05/14 15:00:59;;;;;;;19.58;2.35;;;;;;;;;;5054767;28;20021;-46
2022/05/14 15:03:28;;;;;;;25.77;3.05;;;;;;;;;;5054291;28;20071;-49
2022/05/14 15:05:56;;;;;;;28.70;2.65;;;;;;;;;;5054115;28;20036;-44
2022/05/14 15:08:25;;;;;;;32.13;2.60;;;;;;;;;;5054166;28;20059;-44
2022/05/14 15:10:52;;;;;;;20.20;2.78;;;;;;;;;;5054486;28;20080;-44
2022/05/14 15:13:21;;;;;;;19.02;2.22;;;;;;;;;;5053390;28;20404;-44
2022/05/14 15:15:48;;;;;;;19.10;2.20;;;;;;;;;;5053687;28;20108;-47